createdAt,value
2023-03-26T00:02:08.459Z,42.27
2023-03-26T00:04:35.000Z,42.33
2023-03-26T00:07:01.494Z,42.77
2023-03-26T00:09:28.713Z,43.08
2023-03-26T00:11:55.664Z,42.33
2023-03-26T00:14:22.130Z,41.77
2023-03-26T00:16:48.560Z,42.74
2023-03-26T00:19:14.990Z,41.84
2023-03-26T00:21:41.447Z,42.09
2023-03-26T00:24:07.850Z,42.12
2023-03-26T00:26:34.585Z,43.00
2023-03-26T00:29:01.165Z,42.47
2023-03-26T00:31:27.803Z,41.91
2023-03-26T00:33:54.266Z,41.92
2023-03-26T00:36:20.795Z,41.42
2023-03-26T00:38:47.250Z,42.13
2023-03-26T00:41:13.897Z,42.06
2023-03-26T00:43:40.357Z,42.02
2023-03-26T00:46:06.826Z,42.66
2023-03-26T00:48:44.554Z,42.89
2023-03-26T00:51:11.899Z,42.41
2023-03-26T00:53:38.428Z,42.09
2023-03-26T00:56:04.884Z,41.93
2023-03-26T00:58:31.282Z,41.95
2023-03-26T01:00:57.728Z,41.23
2023-03-26T01:03:26.902Z,42.17
2023-03-26T01:05:54.464Z,42.11
2023-03-26T01:08:21.234Z,42.21
2023-03-26T01:10:47.681Z,42.37
2023-03-26T01:13:14.171Z,42.21
2023-03-26T01:15:40.638Z,42.22
2023-03-26T01:18:07.101Z,41.88
2023-03-26T01:20:33.617Z,41.59
2023-03-26T01:23:00.052Z,42.26
2023-03-26T01:25:26.525Z,41.76
2023-03-26T01:27:52.992Z,41.68
2023-03-26T01:30:20.113Z,41.26
2023-03-26T01:32:46.632Z,41.92
2023-03-26T01:35:13.184Z,42.23
2023-03-26T01:37:39.639Z,42.31
2023-03-26T01:40:06.084Z,42.63
2023-03-26T01:42:32.562Z,43.34
2023-03-26T01:44:59.025Z,42.73
2023-03-26T01:47:25.493Z,42.48
2023-03-26T01:49:52.038Z,43.11
2023-03-26T01:52:18.465Z,43.30
2023-03-26T01:54:44.925Z,42.76
2023-03-26T01:57:11.359Z,43.09
2023-03-26T01:59:38.047Z,42.34
2023-03-26T02:02:04.566Z,42.42
2023-03-26T02:04:31.025Z,42.40
2023-03-26T02:06:57.471Z,42.93
2023-03-26T02:09:23.942Z,42.71
2023-03-26T02:11:50.642Z,42.34
2023-03-26T02:14:17.097Z,42.65
2023-03-26T02:16:43.572Z,43.90
2023-03-26T02:19:10.074Z,44.35
2023-03-26T02:21:36.591Z,43.09
2023-03-26T02:24:04.073Z,43.39
2023-03-26T02:26:30.950Z,43.05
2023-03-26T02:28:57.460Z,42.58
2023-03-26T02:31:23.976Z,42.63
2023-03-26T02:33:50.524Z,43.37
2023-03-26T02:36:17.006Z,42.97
2023-03-26T02:38:43.466Z,43.41
2023-03-26T02:41:09.946Z,44.27
2023-03-26T02:43:36.852Z,43.82
2023-03-26T02:46:03.341Z,43.62
2023-03-26T02:48:30.029Z,43.30
2023-03-26T02:50:56.523Z,42.81
2023-03-26T02:53:23.028Z,43.11
2023-03-26T02:55:49.462Z,43.83
2023-03-26T02:58:16.541Z,43.52
2023-03-26T03:00:43.069Z,43.44
2023-03-26T03:03:09.759Z,43.34
2023-03-26T03:05:36.421Z,43.64
2023-03-26T03:08:02.834Z,44.28
2023-03-26T03:10:29.273Z,43.90
2023-03-26T03:12:55.829Z,44.10
2023-03-26T03:15:22.324Z,43.62
2023-03-26T03:17:48.861Z,42.79
2023-03-26T03:20:15.562Z,42.77
2023-03-26T03:22:42.119Z,42.58
2023-03-26T03:25:08.544Z,43.66
2023-03-26T03:27:34.995Z,43.24
2023-03-26T03:30:01.473Z,42.94
2023-03-26T03:32:28.039Z,43.40
2023-03-26T03:34:54.418Z,43.53
2023-03-26T03:37:20.831Z,43.06
2023-03-26T03:39:47.317Z,42.95
2023-03-26T03:42:13.806Z,43.67
2023-03-26T03:44:40.252Z,44.61
2023-03-26T03:47:06.677Z,43.82
2023-03-26T03:49:33.069Z,43.67
2023-03-26T03:51:59.551Z,44.21
2023-03-26T03:54:26.425Z,44.01
2023-03-26T03:56:52.868Z,43.90
2023-03-26T03:59:19.308Z,43.49
2023-03-26T04:01:45.727Z,43.11
2023-03-26T04:04:12.226Z,43.46
2023-03-26T04:06:38.841Z,42.96
2023-03-26T04:09:05.256Z,42.92
2023-03-26T04:11:31.776Z,42.77
2023-03-26T04:13:59.220Z,43.02
2023-03-26T04:16:25.754Z,43.05
2023-03-26T04:18:52.645Z,42.55
2023-03-26T04:21:19.199Z,43.45
2023-03-26T04:23:45.773Z,43.23
2023-03-26T04:26:12.298Z,42.87
2023-03-26T04:28:38.793Z,43.02
2023-03-26T04:31:05.625Z,43.40
2023-03-26T04:33:32.515Z,42.53
2023-03-26T04:35:59.028Z,43.63
2023-03-26T04:38:26.153Z,43.12
2023-03-26T04:40:52.662Z,43.08
2023-03-26T04:43:19.217Z,42.17
2023-03-26T04:45:45.674Z,42.07
2023-03-26T04:48:12.112Z,41.71
2023-03-26T04:50:39.081Z,41.43
2023-03-26T04:53:06.551Z,41.18
2023-03-26T04:55:33.652Z,41.41
2023-03-26T04:58:00.159Z,41.28
2023-03-26T05:00:26.793Z,41.05
2023-03-26T05:02:55.656Z,41.27
2023-03-26T05:05:22.122Z,41.50
2023-03-26T05:07:48.545Z,41.94
2023-03-26T05:10:15.012Z,41.72
2023-03-26T05:12:41.714Z,41.03
2023-03-26T05:15:08.178Z,41.42
2023-03-26T05:17:37.037Z,40.89
2023-03-26T05:20:03.529Z,40.96
2023-03-26T05:22:30.834Z,41.05
2023-03-26T05:24:57.588Z,41.52
2023-03-26T05:27:24.478Z,41.60
2023-03-26T05:29:53.280Z,42.23
2023-03-26T05:32:19.690Z,41.08
2023-03-26T05:34:46.164Z,40.81
2023-03-26T05:37:12.846Z,40.25
2023-03-26T05:39:39.943Z,39.98
2023-03-26T05:42:06.359Z,40.37
2023-03-26T05:44:32.868Z,39.97
2023-03-26T05:46:59.474Z,40.32
2023-03-26T05:49:25.996Z,39.72
2023-03-26T05:51:54.336Z,41.03
2023-03-26T05:54:21.827Z,40.96
2023-03-26T05:56:48.385Z,40.60
2023-03-26T05:59:14.870Z,40.26
2023-03-26T06:01:41.310Z,40.66
2023-03-26T06:04:07.842Z,40.46
2023-03-26T06:06:34.626Z,40.74
2023-03-26T06:09:02.847Z,40.48
2023-03-26T06:11:29.509Z,40.83
2023-03-26T06:13:55.949Z,40.94
2023-03-26T06:16:26.978Z,41.19
2023-03-26T06:18:56.952Z,40.58
2023-03-26T06:21:24.053Z,40.67
2023-03-26T06:23:50.522Z,40.52
2023-03-26T06:26:17.328Z,40.58
2023-03-26T06:28:43.804Z,39.93
2023-03-26T06:31:10.512Z,40.02
2023-03-26T06:33:37.249Z,40.31
2023-03-26T06:36:03.641Z,39.69
2023-03-26T06:38:30.125Z,39.27
2023-03-26T06:40:57.219Z,38.92
2023-03-26T06:43:23.885Z,39.27
2023-03-26T06:45:50.363Z,39.44
2023-03-26T06:48:16.817Z,39.22
2023-03-26T06:50:43.563Z,38.92
2023-03-26T06:53:10.573Z,38.66
2023-03-26T06:55:37.099Z,38.43
2023-03-26T06:58:04.398Z,38.89
2023-03-26T07:00:30.983Z,38.61
2023-03-26T07:02:57.718Z,38.73
2023-03-26T07:05:24.517Z,38.71
2023-03-26T07:07:50.993Z,38.58
2023-03-26T07:10:17.777Z,38.82
2023-03-26T07:12:44.186Z,39.67
2023-03-26T07:15:10.860Z,39.21
2023-03-26T07:17:37.566Z,38.96
2023-03-26T07:20:04.112Z,39.45
2023-03-26T07:22:30.736Z,39.26
2023-03-26T07:24:57.343Z,39.05
2023-03-26T07:27:23.776Z,39.01
2023-03-26T07:29:51.282Z,39.86
2023-03-26T07:32:19.137Z,39.76
2023-03-26T07:34:45.883Z,38.92
2023-03-26T07:37:12.294Z,38.39
2023-03-26T07:39:38.798Z,38.36
2023-03-26T07:42:05.241Z,38.16
2023-03-26T07:44:33.043Z,38.07
2023-03-26T07:47:00.531Z,38.53
2023-03-26T07:49:27.408Z,38.31
2023-03-26T07:51:53.901Z,38.31
2023-03-26T07:54:20.772Z,38.35
2023-03-26T07:56:48.145Z,37.88
2023-03-26T07:59:14.596Z,37.74
2023-03-26T08:01:40.965Z,37.94
2023-03-26T08:04:24.585Z,37.87
2023-03-26T08:06:53.078Z,37.45
2023-03-26T08:09:19.660Z,37.36
2023-03-26T08:11:46.135Z,37.33
2023-03-26T08:14:13.626Z,37.99
2023-03-26T08:16:42.015Z,38.38
2023-03-26T08:19:08.586Z,37.75
2023-03-26T08:21:35.076Z,37.90
2023-03-26T08:24:01.851Z,37.39
2023-03-26T08:26:28.661Z,37.40
2023-03-26T08:28:55.447Z,38.02
2023-03-26T08:31:23.088Z,37.78
2023-03-26T08:33:50.081Z,37.04
2023-03-26T08:36:16.499Z,36.60
2023-03-26T08:38:45.146Z,36.68
2023-03-26T08:41:13.213Z,36.56
2023-03-26T08:43:42.789Z,35.93
2023-03-26T08:46:09.341Z,36.38
2023-03-26T08:48:35.995Z,36.00
2023-03-26T08:51:02.463Z,36.60
2023-03-26T08:53:28.932Z,35.61
2023-03-26T08:55:55.320Z,35.26
2023-03-26T08:58:21.849Z,35.11
2023-03-26T09:00:48.871Z,34.56
2023-03-26T09:03:15.344Z,34.48
2023-03-26T09:05:42.253Z,34.45
2023-03-26T09:08:08.638Z,34.63
2023-03-26T09:10:35.577Z,34.26
2023-03-26T09:13:02.002Z,34.13
2023-03-26T09:15:28.426Z,33.80
2023-03-26T09:17:56.660Z,33.69
2023-03-26T09:20:24.427Z,33.75
2023-03-26T09:22:50.809Z,34.01
2023-03-26T09:25:17.640Z,33.31
2023-03-26T09:27:44.031Z,33.34
2023-03-26T09:30:10.467Z,33.68
2023-03-26T09:32:36.933Z,33.01
2023-03-26T09:35:03.688Z,31.93
2023-03-26T09:37:30.086Z,32.72
2023-03-26T09:39:56.582Z,32.37
2023-03-26T09:42:23.006Z,32.50
2023-03-26T09:44:49.531Z,32.13
2023-03-26T09:47:15.990Z,37.07
2023-03-26T09:49:42.502Z,31.72
2023-03-26T09:52:08.994Z,31.56
2023-03-26T09:54:35.402Z,30.77
2023-03-26T09:57:02.785Z,31.06
2023-03-26T09:59:29.190Z,30.44
2023-03-26T10:01:55.841Z,29.97
2023-03-26T10:04:22.323Z,29.63
2023-03-26T10:06:50.813Z,29.83
2023-03-26T10:09:17.454Z,29.82
2023-03-26T10:11:44.947Z,29.18
2023-03-26T10:14:11.447Z,28.86
2023-03-26T10:16:38.022Z,29.60
2023-03-26T10:19:04.490Z,29.61
2023-03-26T10:21:31.073Z,29.56
2023-03-26T10:23:57.434Z,29.45
2023-03-26T10:26:23.789Z,29.48
2023-03-26T10:28:52.566Z,29.67
2023-03-26T10:31:19.156Z,29.29
2023-03-26T10:33:45.860Z,29.77
2023-03-26T10:36:12.284Z,30.11
2023-03-26T10:38:38.734Z,29.36
2023-03-26T10:41:05.165Z,28.64
2023-03-26T10:43:31.659Z,28.47
2023-03-26T10:45:58.071Z,28.40
2023-03-26T10:48:24.500Z,27.93
2023-03-26T10:50:50.988Z,28.20
2023-03-26T10:53:17.510Z,28.39
2023-03-26T10:55:43.956Z,28.11
2023-03-26T10:58:11.605Z,28.01
2023-03-26T11:00:38.018Z,27.32
2023-03-26T11:03:04.449Z,26.75
2023-03-26T11:05:31.557Z,26.94
2023-03-26T11:07:58.294Z,27.56
2023-03-26T11:10:25.058Z,27.79
2023-03-26T11:12:51.592Z,27.88
2023-03-26T11:15:19.025Z,28.30
2023-03-26T11:17:46.071Z,27.39
2023-03-26T11:20:12.615Z,27.70
2023-03-26T11:22:39.154Z,28.05
2023-03-26T11:25:05.748Z,27.71
2023-03-26T11:27:32.256Z,27.06
2023-03-26T11:29:58.958Z,27.68
2023-03-26T11:32:25.962Z,27.45
2023-03-26T11:34:52.463Z,28.13
2023-03-26T11:37:19.071Z,31.41
2023-03-26T11:39:45.626Z,31.13
2023-03-26T11:42:13.373Z,27.46
2023-03-26T11:44:40.063Z,29.98
2023-03-26T11:47:06.518Z,28.15
2023-03-26T11:49:33.973Z,28.47
2023-03-26T11:52:00.676Z,28.86
2023-03-26T11:54:27.613Z,29.01
2023-03-26T11:57:05.829Z,30.10
2023-03-26T11:59:39.245Z,27.70
2023-03-26T12:02:12.202Z,27.61
2023-03-26T12:04:38.958Z,28.03
2023-03-26T12:07:05.489Z,27.51
2023-03-26T12:09:32.282Z,28.91
2023-03-26T12:11:59.168Z,28.96
2023-03-26T12:14:25.544Z,26.82
2023-03-26T12:16:52.868Z,25.14
2023-03-26T12:19:21.989Z,26.83
2023-03-26T12:21:48.505Z,25.94
2023-03-26T12:24:16.269Z,25.43
2023-03-26T12:26:42.745Z,24.52
2023-03-26T12:29:09.349Z,24.23
2023-03-26T12:31:39.832Z,23.75
2023-03-26T12:34:06.951Z,23.94
2023-03-26T12:36:33.455Z,23.60
2023-03-26T12:39:16.526Z,23.20
2023-03-26T12:43:53.513Z,23.26
2023-03-26T12:44:53.177Z,23.22
2023-03-26T12:47:58.717Z,23.79
2023-03-26T12:50:06.046Z,24.25
2023-03-26T12:52:32.673Z,24.03
2023-03-26T12:55:01.150Z,25.46
2023-03-26T12:57:27.726Z,25.76
2023-03-26T12:59:54.172Z,24.99
2023-03-26T13:02:20.953Z,26.44
2023-03-26T13:05:02.384Z,24.42
2023-03-26T13:07:31.847Z,24.15
2023-03-26T13:09:58.287Z,27.44
2023-03-26T13:12:24.865Z,25.94
2023-03-26T13:14:51.922Z,25.01
2023-03-26T13:17:18.422Z,23.89
2023-03-26T13:19:44.899Z,22.80
2023-03-26T13:22:11.603Z,23.25
2023-03-26T13:24:38.402Z,21.72
2023-03-26T13:27:06.420Z,22.17
2023-03-26T13:29:33.682Z,22.11
2023-03-26T13:32:00.600Z,22.40
2023-03-26T13:34:34.574Z,23.20
2023-03-26T13:37:02.289Z,22.80
2023-03-26T13:39:28.695Z,24.34
2023-03-26T13:41:55.400Z,26.37
2023-03-26T13:44:21.788Z,24.23
2023-03-26T13:46:48.409Z,22.28
2023-03-26T13:49:15.561Z,26.77
2023-03-26T13:51:42.427Z,24.43
2023-03-26T13:54:09.226Z,23.09
2023-03-26T13:56:35.912Z,22.95
2023-03-26T13:59:02.511Z,23.06
2023-03-26T14:01:29.632Z,22.45
2023-03-26T14:03:56.294Z,22.47
2023-03-26T14:06:23.077Z,22.89
2023-03-26T14:08:49.510Z,23.06
2023-03-26T14:11:16.318Z,23.28
2023-03-26T14:13:43.905Z,23.47
2023-03-26T14:16:10.494Z,23.29
2023-03-26T14:18:38.043Z,23.07
2023-03-26T14:21:04.651Z,23.35
2023-03-26T14:23:31.544Z,23.44
2023-03-26T14:25:59.012Z,23.49
2023-03-26T14:28:25.525Z,23.76
2023-03-26T14:30:52.042Z,23.59
2023-03-26T14:33:27.314Z,23.73
2023-03-26T14:35:54.549Z,23.26
2023-03-26T14:38:22.230Z,23.63
2023-03-26T14:40:48.963Z,25.62
2023-03-26T14:43:16.140Z,24.91
2023-03-26T14:45:45.490Z,23.67
2023-03-26T14:48:12.429Z,24.07
2023-03-26T14:50:39.500Z,24.17
2023-03-26T14:53:06.280Z,24.68
2023-03-26T14:55:33.154Z,24.58
2023-03-26T14:57:59.695Z,24.66
2023-03-26T15:00:26.583Z,25.03
2023-03-26T15:02:54.409Z,24.92
2023-03-26T15:05:21.004Z,25.32
2023-03-26T15:07:47.463Z,24.06
2023-03-26T15:10:14.058Z,24.44
2023-03-26T15:12:40.518Z,24.35
2023-03-26T15:15:07.038Z,24.50
2023-03-26T15:17:34.313Z,24.32
2023-03-26T15:20:01.320Z,24.47
2023-03-26T15:22:27.919Z,25.06
2023-03-26T15:24:54.471Z,24.77
2023-03-26T15:27:21.137Z,25.35
2023-03-26T15:29:48.120Z,25.22
2023-03-26T15:32:14.913Z,25.31
2023-03-26T15:34:43.781Z,24.72
2023-03-26T15:37:10.788Z,25.10
2023-03-26T15:39:37.839Z,24.93
2023-03-26T15:42:05.330Z,25.60
2023-03-26T15:44:38.124Z,26.63
2023-03-26T15:47:11.008Z,26.16
2023-03-26T15:49:37.591Z,26.40
2023-03-26T15:52:04.181Z,26.13
2023-03-26T15:54:30.697Z,26.49
2023-03-26T15:56:57.642Z,26.92
2023-03-26T15:59:24.349Z,26.02
2023-03-26T16:01:51.273Z,26.02
2023-03-26T16:04:18.236Z,25.98
2023-03-26T16:06:45.126Z,26.87
2023-03-26T16:09:11.962Z,27.57
2023-03-26T16:11:38.520Z,28.67
2023-03-26T16:14:05.169Z,29.26
2023-03-26T16:16:31.809Z,29.21
2023-03-26T16:18:58.576Z,30.03
2023-03-26T16:21:30.892Z,30.48
2023-03-26T16:23:59.697Z,30.36
2023-03-26T16:26:26.534Z,30.56
2023-03-26T16:28:54.775Z,30.16
2023-03-26T16:31:34.965Z,30.40
2023-03-26T16:34:05.621Z,30.45
2023-03-26T16:36:33.098Z,29.93
2023-03-26T16:39:02.562Z,30.23
2023-03-26T16:41:29.031Z,30.12
2023-03-26T16:46:36.405Z,31.30
2023-03-26T16:49:03.693Z,31.19
2023-03-26T16:51:31.071Z,31.36
2023-03-26T16:53:58.168Z,31.49
2023-03-26T16:56:25.438Z,31.13
2023-03-26T16:58:55.372Z,32.29
2023-03-26T17:01:22.248Z,32.17
2023-03-26T17:03:49.162Z,32.00
2023-03-26T17:06:16.173Z,32.31
2023-03-26T17:08:43.094Z,32.50
2023-03-26T17:11:13.017Z,32.73
2023-03-26T17:13:41.473Z,32.68
2023-03-26T17:16:08.358Z,32.55
2023-03-26T17:18:35.391Z,32.91
2023-03-26T17:21:02.419Z,34.14
2023-03-26T17:23:29.527Z,33.95
2023-03-26T17:25:57.556Z,34.06
2023-03-26T17:28:24.852Z,34.50
2023-03-26T17:30:52.290Z,35.10
2023-03-26T17:33:19.248Z,35.19
2023-03-26T17:35:46.850Z,35.88
2023-03-26T17:38:13.953Z,34.76
2023-03-26T17:40:40.791Z,35.35
2023-03-26T17:43:10.285Z,35.13
2023-03-26T17:45:37.324Z,36.19
2023-03-26T17:48:04.362Z,35.61
2023-03-26T17:50:32.020Z,35.36
2023-03-26T17:52:59.567Z,35.23
2023-03-26T17:55:28.002Z,36.01
2023-03-26T17:57:54.721Z,35.55
2023-03-26T18:00:22.559Z,36.21
2023-03-26T18:02:52.309Z,35.60
2023-03-26T18:05:19.738Z,35.40
2023-03-26T18:07:46.759Z,35.37
2023-03-26T18:10:13.319Z,35.28
2023-03-26T18:12:40.275Z,36.15
2023-03-26T18:15:11.850Z,35.64
2023-03-26T18:17:40.080Z,35.53
2023-03-26T18:20:07.138Z,35.48
2023-03-26T18:22:34.040Z,35.63
2023-03-26T18:25:02.001Z,35.90
2023-03-26T18:27:29.209Z,35.94
2023-03-26T18:30:02.436Z,35.45
2023-03-26T18:32:31.040Z,35.35
2023-03-26T18:34:58.389Z,36.40
2023-03-26T18:37:26.021Z,36.73
2023-03-26T18:39:53.105Z,36.84
2023-03-26T18:42:22.570Z,35.97
2023-03-26T18:44:51.486Z,35.99
2023-03-26T18:47:18.731Z,35.62
2023-03-26T18:49:45.765Z,35.93
2023-03-26T18:52:12.999Z,36.57
2023-03-26T18:54:41.287Z,36.03
2023-03-26T18:57:15.056Z,36.14
2023-03-26T18:59:43.791Z,36.71
2023-03-26T19:02:10.945Z,37.09
2023-03-26T19:04:38.182Z,36.81
2023-03-26T19:07:05.176Z,36.80
2023-03-26T19:09:32.718Z,36.49
2023-03-26T19:12:01.852Z,36.89
2023-03-26T19:14:29.368Z,36.55
2023-03-26T19:16:57.524Z,37.03
2023-03-26T19:19:25.387Z,36.83
2023-03-26T19:21:52.492Z,37.11
2023-03-26T19:24:19.075Z,37.23
2023-03-26T19:26:45.971Z,37.29
2023-03-26T19:29:16.411Z,36.67
2023-03-26T19:31:43.806Z,37.00
2023-03-26T19:34:10.845Z,36.87
2023-03-26T19:36:38.286Z,37.09
2023-03-26T19:39:06.562Z,37.26
2023-03-26T19:41:34.455Z,37.07
2023-03-26T19:44:00.991Z,37.07
2023-03-26T19:46:29.051Z,37.58
2023-03-26T19:49:01.782Z,37.41
2023-03-26T19:51:28.971Z,37.50
2023-03-26T19:53:56.609Z,37.11
2023-03-26T19:56:23.707Z,36.91
2023-03-26T19:58:50.720Z,37.05
2023-03-26T20:01:17.951Z,37.44
2023-03-26T20:03:44.994Z,37.10
2023-03-26T20:06:12.033Z,36.99
2023-03-26T20:08:39.432Z,36.45
2023-03-26T20:11:06.928Z,36.62
2023-03-26T20:13:34.760Z,36.20
2023-03-26T20:16:06.069Z,36.90
2023-03-26T20:18:33.023Z,37.05
2023-03-26T20:21:01.095Z,36.31
2023-03-26T20:23:27.537Z,35.99
2023-03-26T20:25:57.643Z,36.07
2023-03-26T20:28:24.709Z,35.90
2023-03-26T20:30:51.616Z,36.06
2023-03-26T20:33:18.459Z,35.82
2023-03-26T20:35:45.371Z,35.99
2023-03-26T20:38:12.150Z,35.89
2023-03-26T20:40:39.156Z,36.02
2023-03-26T20:43:05.655Z,36.19
2023-03-26T20:45:33.687Z,36.31
2023-03-26T20:48:01.321Z,36.36
2023-03-26T20:50:28.806Z,36.81
2023-03-26T20:52:55.278Z,36.97
2023-03-26T20:55:24.010Z,38.17
2023-03-26T20:57:50.569Z,37.51
2023-03-26T21:00:17.162Z,37.69
2023-03-26T21:02:44.023Z,38.52
2023-03-26T21:05:10.807Z,38.25
2023-03-26T21:07:39.071Z,37.94
2023-03-26T21:10:05.579Z,37.37
2023-03-26T21:12:32.324Z,36.94
2023-03-26T21:15:01.590Z,37.19
2023-03-26T21:17:30.034Z,37.66
2023-03-26T21:19:56.445Z,38.61
2023-03-26T21:22:23.123Z,38.28
2023-03-26T21:24:50.681Z,38.22
2023-03-26T21:27:19.162Z,38.26
2023-03-26T21:29:45.702Z,39.56
2023-03-26T21:32:12.087Z,38.80
2023-03-26T21:34:42.073Z,39.30
2023-03-26T21:37:14.644Z,38.32
2023-03-26T21:39:41.645Z,37.61
2023-03-26T21:42:08.116Z,37.15
2023-03-26T21:44:34.565Z,37.16
2023-03-26T21:47:01.607Z,37.11
2023-03-26T21:49:28.030Z,37.05
2023-03-26T21:51:54.472Z,37.79
2023-03-26T21:54:21.486Z,38.04
2023-03-26T21:56:48.033Z,37.46
2023-03-26T21:59:17.714Z,37.11
2023-03-26T22:01:44.216Z,36.86
2023-03-26T22:04:10.906Z,36.90
2023-03-26T22:06:37.774Z,37.05
2023-03-26T22:09:04.237Z,37.91
2023-03-26T22:11:31.139Z,37.61
2023-03-26T22:13:57.560Z,37.77
2023-03-26T22:16:24.250Z,37.90
2023-03-26T22:18:50.706Z,37.48
2023-03-26T22:21:17.108Z,37.79
2023-03-26T22:23:43.592Z,37.80
2023-03-26T22:26:10.649Z,37.97
2023-03-26T22:28:37.263Z,37.50
2023-03-26T22:31:03.829Z,36.91
2023-03-26T22:33:30.534Z,36.98
2023-03-26T22:35:56.984Z,37.92
2023-03-26T22:38:23.977Z,37.60
2023-03-26T22:40:50.314Z,37.36
2023-03-26T22:43:16.767Z,38.37
2023-03-26T22:45:43.213Z,37.45
2023-03-26T22:48:10.798Z,37.36
2023-03-26T22:50:37.268Z,37.51
2023-03-26T22:53:04.056Z,37.45
2023-03-26T22:55:30.673Z,37.23
2023-03-26T22:57:57.104Z,37.04
2023-03-26T23:00:23.993Z,37.47
2023-03-26T23:02:50.556Z,37.76
2023-03-26T23:05:16.979Z,38.09
2023-03-26T23:07:43.407Z,38.38
2023-03-26T23:10:09.855Z,38.19
2023-03-26T23:12:36.380Z,38.02
2023-03-26T23:15:03.356Z,37.77
2023-03-26T23:17:30.035Z,37.84
2023-03-26T23:19:56.506Z,37.43
2023-03-26T23:22:23.000Z,37.08
2023-03-26T23:24:49.396Z,37.85
2023-03-26T23:27:15.964Z,38.86
2023-03-26T23:29:49.216Z,38.76
2023-03-26T23:32:24.246Z,38.78
2023-03-26T23:34:52.166Z,39.21
2023-03-26T23:37:19.494Z,39.18
2023-03-26T23:39:46.556Z,38.97
2023-03-26T23:42:13.034Z,38.75
2023-03-26T23:44:39.733Z,38.17
2023-03-26T23:47:06.235Z,37.78
2023-03-26T23:49:32.705Z,37.85
2023-03-26T23:51:59.356Z,37.48
2023-03-26T23:54:25.763Z,37.41
2023-03-26T23:56:52.259Z,37.29
2023-03-26T23:59:18.719Z,38.00
